createdAt,value
2018-04-19T00:00:48.054Z,66.85
2018-04-19T00:01:48.041Z,67.43
2018-04-19T00:02:48.040Z,66.66
2018-04-19T00:03:48.042Z,67.05
2018-04-19T00:04:48.035Z,66.95
2018-04-19T00:05:48.031Z,67.24
2018-04-19T00:06:48.021Z,67.05
2018-04-19T00:07:48.026Z,66.28
2018-04-19T00:08:48.025Z,67.05
2018-04-19T00:09:48.019Z,67.14
2018-04-19T00:10:48.011Z,67.24
2018-04-19T00:11:48.054Z,67.33
2018-04-19T00:12:48.003Z,67.05
2018-04-19T00:13:47.997Z,66.95
2018-04-19T00:14:47.997Z,67.24
2018-04-19T00:15:47.983Z,67.81
2018-04-19T00:16:47.988Z,68.73
2018-04-19T00:17:47.991Z,68.63
2018-04-19T00:18:47.975Z,68.35
2018-04-19T00:19:47.982Z,68.06
2018-04-19T00:20:47.971Z,68.35
2018-04-19T00:21:47.960Z,68.44
2018-04-19T00:22:47.980Z,68.44
2018-04-19T00:23:47.956Z,67.62
2018-04-19T00:24:47.961Z,67.43
2018-04-19T00:25:47.953Z,67.52
2018-04-19T00:26:47.948Z,67.43
2018-04-19T00:27:47.944Z,67.81
2018-04-19T00:28:47.937Z,67.33
2018-04-19T00:29:47.934Z,67.77
2018-04-19T00:30:47.934Z,67.68
2018-04-19T00:31:47.923Z,68.16
2018-04-19T00:32:47.913Z,68.35
2018-04-19T00:33:47.917Z,68.63
2018-04-19T00:34:47.922Z,68.73
2018-04-19T00:35:47.924Z,68.92
2018-04-19T00:36:47.905Z,68.26
2018-04-19T00:37:47.905Z,68.16
2018-04-19T00:38:47.906Z,67.68
2018-04-19T00:39:47.901Z,67.77
2018-04-19T00:40:47.886Z,67.43
2018-04-19T00:41:47.886Z,67.33
2018-04-19T00:42:47.882Z,68.10
2018-04-19T00:43:47.880Z,67.97
2018-04-19T00:44:47.882Z,68.26
2018-04-19T00:45:47.875Z,68.16
2018-04-19T00:46:47.863Z,68.26
2018-04-19T00:47:47.861Z,68.16
2018-04-19T00:48:47.863Z,68.16
2018-04-19T00:49:47.854Z,67.77
2018-04-19T00:50:47.853Z,68.26
2018-04-19T00:51:47.848Z,68.44
2018-04-19T00:52:47.838Z,68.54
2018-04-19T00:53:47.840Z,68.06
2018-04-19T00:54:47.838Z,68.63
2018-04-19T00:55:47.824Z,68.44
2018-04-19T00:56:47.825Z,68.35
2018-04-19T00:57:47.829Z,69.21
2018-04-19T00:58:47.819Z,69.02
2018-04-19T00:59:47.825Z,69.31
2018-04-19T01:00:47.816Z,69.31
2018-04-19T01:01:47.816Z,69.74
2018-04-19T01:02:47.794Z,70.22
2018-04-19T01:03:47.786Z,70.13
2018-04-19T01:04:47.796Z,70.70
2018-04-19T01:05:47.795Z,71.08
2018-04-19T01:06:47.791Z,71.08
2018-04-19T01:07:47.779Z,71.18
2018-04-19T01:08:47.782Z,70.98
2018-04-19T01:09:47.775Z,71.18
2018-04-19T01:10:47.767Z,71.27
2018-04-19T01:11:47.763Z,70.89
2018-04-19T01:12:47.760Z,70.79
2018-04-19T01:13:47.755Z,70.79
2018-04-19T01:14:47.745Z,71.18
2018-04-19T01:15:47.749Z,71.18
2018-04-19T01:16:47.746Z,71.18
2018-04-19T01:17:47.753Z,70.51
2018-04-19T01:18:47.730Z,70.89
2018-04-19T01:19:47.728Z,70.32
2018-04-19T01:20:47.722Z,70.32
2018-04-19T01:21:47.730Z,70.42
2018-04-19T01:22:47.711Z,70.13
2018-04-19T01:23:47.707Z,70.42
2018-04-19T01:24:47.719Z,70.13
2018-04-19T01:25:47.711Z,70.13
2018-04-19T01:26:47.696Z,70.32
2018-04-19T01:27:47.697Z,70.89
2018-04-19T01:28:47.695Z,71.08
2018-04-19T01:29:47.685Z,71.08
2018-04-19T02:01:50.592Z,72.67
2018-04-19T02:02:50.556Z,72.76
2018-04-19T02:04:43.455Z,72.38
2018-04-19T02:05:43.431Z,72.19
2018-04-19T02:06:43.437Z,72.76
2018-04-19T02:07:43.414Z,72.57
2018-04-19T02:08:43.412Z,72.48
2018-04-19T02:09:43.388Z,72.86
2018-04-19T02:10:43.389Z,72.28
2018-04-19T02:11:43.375Z,72.76
2018-04-19T02:12:43.373Z,72.57
2018-04-19T02:13:43.371Z,72.67
2018-04-19T02:14:43.352Z,72.86
2018-04-19T02:15:43.357Z,72.19
2018-04-19T02:16:43.348Z,73.05
2018-04-19T02:17:43.337Z,72.96
2018-04-19T02:18:43.335Z,73.62
2018-04-19T02:19:43.331Z,73.72
2018-04-19T02:20:43.321Z,73.91
2018-04-19T02:21:43.328Z,74.29
2018-04-19T02:22:43.309Z,73.91
2018-04-19T02:23:43.306Z,74.19
2018-04-19T02:24:43.301Z,74.10
2018-04-19T02:25:43.299Z,73.81
2018-04-19T02:26:43.293Z,74.01
2018-04-19T02:27:43.288Z,73.62
2018-04-19T02:28:43.280Z,74.10
2018-04-19T02:29:43.277Z,74.19
2018-04-19T02:30:43.272Z,73.72
2018-04-19T02:31:43.279Z,73.43
2018-04-19T02:32:43.271Z,74.19
2018-04-19T02:33:43.259Z,73.14
2018-04-19T02:34:43.253Z,73.91
2018-04-19T02:35:43.253Z,74.19
2018-04-19T02:36:43.250Z,73.72
2018-04-19T02:37:43.237Z,73.52
2018-04-19T02:38:43.235Z,73.43
2018-04-19T02:39:43.226Z,73.43
2018-04-19T02:40:43.226Z,73.24
2018-04-19T02:41:43.211Z,73.52
2018-04-19T02:42:43.215Z,73.52
2018-04-19T02:43:43.239Z,73.52
2018-04-19T02:44:43.204Z,74.10
2018-04-19T02:45:43.200Z,74.01
2018-04-19T02:46:43.191Z,73.91
2018-04-19T02:47:43.193Z,74.57
2018-04-19T02:48:43.181Z,74.96
2018-04-19T02:49:43.187Z,73.91
2018-04-19T02:50:43.179Z,73.91
2018-04-19T02:51:43.171Z,74.29
2018-04-19T02:52:43.188Z,74.10
2018-04-19T02:53:43.167Z,74.01
2018-04-19T02:54:43.191Z,74.10
2018-04-19T02:55:43.155Z,74.19
2018-04-19T02:56:43.143Z,74.38
2018-04-19T02:57:43.146Z,74.38
2018-04-19T02:58:43.129Z,74.29
2018-04-19T02:59:43.140Z,74.96
2018-04-19T03:00:43.141Z,74.96
2018-04-19T03:01:43.129Z,74.86
2018-04-19T03:02:43.124Z,74.86
2018-04-19T03:03:43.118Z,75.34
2018-04-19T03:04:43.117Z,75.78
2018-04-19T03:05:43.096Z,75.05
2018-04-19T03:06:43.099Z,75.34
2018-04-19T03:07:43.120Z,75.81
2018-04-19T03:08:43.114Z,75.62
2018-04-19T03:09:43.086Z,75.59
2018-04-19T03:10:43.084Z,76.20
2018-04-19T03:11:43.093Z,75.78
2018-04-19T03:12:43.075Z,75.78
2018-04-19T03:13:43.089Z,75.72
2018-04-19T03:14:43.052Z,75.87
2018-04-19T03:15:43.055Z,75.68
2018-04-19T03:16:43.074Z,75.81
2018-04-19T03:17:43.065Z,75.96
2018-04-19T03:18:43.048Z,75.96
2018-04-19T03:19:43.041Z,76.44
2018-04-19T03:20:43.030Z,76.64
2018-04-19T03:21:43.028Z,76.16
2018-04-19T03:22:43.024Z,76.64
2018-04-19T03:23:43.024Z,76.54
2018-04-19T03:24:43.004Z,77.30
2018-04-19T03:25:43.009Z,77.30
2018-04-19T03:26:43.001Z,77.78
2018-04-19T03:27:43.017Z,78.35
2018-04-19T03:28:42.989Z,78.16
2018-04-19T03:29:42.996Z,78.44
2018-04-19T03:30:42.984Z,78.16
2018-04-19T03:31:42.984Z,78.06
2018-04-19T03:32:42.977Z,77.97
2018-04-19T03:33:42.968Z,78.25
2018-04-19T03:34:42.966Z,77.69
2018-04-19T03:35:42.963Z,77.40
2018-04-19T03:36:42.955Z,77.59
2018-04-19T03:37:42.979Z,77.49
2018-04-19T03:38:42.942Z,78.25
2018-04-19T03:39:42.940Z,77.69
2018-04-19T03:40:42.962Z,78.16
2018-04-19T03:41:42.936Z,78.44
2018-04-19T03:42:42.928Z,78.92
2018-04-19T03:43:42.937Z,79.27
2018-04-19T03:44:42.924Z,79.83
2018-04-19T03:45:42.916Z,80.22
2018-04-19T03:46:42.909Z,80.22
2018-04-19T03:47:42.905Z,80.50
2018-04-19T03:48:42.898Z,81.07
2018-04-19T03:49:42.890Z,81.26
2018-04-19T03:50:42.906Z,81.65
2018-04-19T03:51:42.880Z,82.21
2018-04-19T03:52:42.874Z,81.89
2018-04-19T03:53:42.887Z,82.65
2018-04-19T03:54:42.864Z,82.56
2018-04-19T03:55:42.858Z,82.93
2018-04-19T03:56:42.854Z,83.22
2018-04-19T03:57:42.882Z,83.03
2018-04-19T03:58:42.848Z,83.41
2018-04-19T03:59:42.847Z,83.32
2018-04-19T04:00:42.832Z,83.41
2018-04-19T04:01:42.830Z,83.89
2018-04-19T04:02:42.831Z,83.89
2018-04-19T04:03:42.831Z,83.51
2018-04-19T04:04:42.815Z,84.27
2018-04-19T04:05:42.807Z,84.46
2018-04-19T04:06:42.811Z,84.75
2018-04-19T04:07:42.814Z,85.60
2018-04-19T04:08:42.787Z,85.80
2018-04-19T04:09:42.792Z,85.99
2018-04-19T04:10:42.793Z,85.99
2018-04-19T04:11:42.781Z,86.08
2018-04-19T04:12:42.787Z,86.18
2018-04-19T04:13:42.764Z,86.08
2018-04-19T04:14:42.772Z,85.70
2018-04-19T04:15:42.745Z,86.22
2018-04-19T04:16:42.746Z,86.80
2018-04-19T04:17:42.740Z,87.08
2018-04-19T04:18:42.755Z,87.27
2018-04-19T04:19:42.732Z,87.46
2018-04-19T04:20:42.726Z,87.08
2018-04-19T04:21:42.718Z,87.75
2018-04-19T04:22:42.720Z,88.04
2018-04-19T04:23:42.730Z,88.70
2018-04-19T04:24:42.744Z,88.89
2018-04-19T04:25:42.699Z,88.89
2018-04-19T04:26:42.687Z,89.37
2018-04-19T04:27:42.690Z,89.65
2018-04-19T04:28:42.682Z,89.75
2018-04-19T04:29:42.675Z,89.56
2018-04-19T04:30:42.679Z,89.65
2018-04-19T04:31:42.667Z,90.13
2018-04-19T04:32:42.655Z,89.84
2018-04-19T04:33:42.652Z,89.75
2018-04-19T04:34:42.671Z,89.37
2018-04-19T04:35:42.643Z,89.27
2018-04-19T04:36:42.642Z,88.99
2018-04-19T04:37:42.634Z,88.65
2018-04-19T04:38:42.628Z,88.56
2018-04-19T04:39:42.633Z,88.89
2018-04-19T04:40:42.633Z,88.84
2018-04-19T04:41:42.608Z,89.03
2018-04-19T04:42:42.606Z,89.03
2018-04-19T04:43:42.596Z,89.03
2018-04-19T04:44:42.594Z,89.03
2018-04-19T04:45:42.592Z,89.22
2018-04-19T04:46:42.584Z,89.32
2018-04-19T04:47:42.576Z,89.13
2018-04-19T04:48:42.590Z,89.13
2018-04-19T04:49:42.563Z,89.03
2018-04-19T04:50:42.556Z,88.84
2018-04-19T04:51:42.550Z,88.84
2018-04-19T04:52:42.540Z,89.41
2018-04-19T04:53:42.556Z,88.93
2018-04-19T04:54:42.560Z,89.03
2018-04-19T04:55:42.543Z,89.13
2018-04-19T04:56:42.516Z,89.03
2018-04-19T04:57:42.516Z,89.22
2018-04-19T04:58:42.519Z,88.93
2018-04-19T04:59:42.506Z,89.22
2018-04-19T05:00:42.500Z,88.75
2018-04-19T05:01:42.498Z,89.13
2018-04-19T05:02:42.495Z,89.13
2018-04-19T05:03:42.489Z,89.22
2018-04-19T05:04:42.475Z,89.22
2018-04-19T05:05:42.475Z,89.03
2018-04-19T05:06:42.472Z,90.08
2018-04-19T05:07:42.467Z,89.22
2018-04-19T05:08:42.460Z,89.22
2018-04-19T05:09:42.457Z,89.03
2018-04-19T05:10:42.447Z,88.89
2018-04-19T05:11:42.448Z,88.12
2018-04-19T05:12:42.447Z,87.65
2018-04-19T05:13:42.431Z,87.27
2018-04-19T05:14:42.432Z,87.27
2018-04-19T05:15:42.437Z,87.27
2018-04-19T05:16:42.412Z,87.36
2018-04-19T05:17:42.414Z,87.07
2018-04-19T05:18:42.477Z,87.27
2018-04-19T05:19:42.393Z,87.40
2018-04-19T05:20:42.399Z,86.83
2018-04-19T05:21:42.407Z,86.45
2018-04-19T05:22:42.392Z,86.55
2018-04-19T05:23:42.387Z,86.07
2018-04-19T05:24:42.371Z,85.88
2018-04-19T05:25:42.373Z,85.60
2018-04-19T05:26:42.374Z,85.31
2018-04-19T05:27:42.385Z,84.74
2018-04-19T05:28:42.389Z,84.55
2018-04-19T05:29:42.345Z,84.64
2018-04-19T05:30:42.349Z,84.64
2018-04-19T05:31:42.378Z,85.50
2018-04-19T05:32:42.338Z,86.16
2018-04-19T05:33:42.347Z,85.88
2018-04-19T05:34:42.331Z,86.55
2018-04-19T05:35:42.328Z,86.65
2018-04-19T05:36:42.320Z,85.31
2018-04-19T05:37:42.317Z,86.69
2018-04-19T05:38:42.314Z,86.78
2018-04-19T05:39:42.311Z,86.40
2018-04-19T05:40:42.308Z,86.98
2018-04-19T05:41:42.298Z,85.64
2018-04-19T05:42:42.302Z,85.73
2018-04-19T05:43:42.293Z,85.54
2018-04-19T05:44:42.306Z,85.64
2018-04-19T05:45:42.287Z,84.78
2018-04-19T05:46:42.276Z,84.20
2018-04-19T05:47:42.276Z,84.01
2018-04-19T05:48:42.271Z,83.87
2018-04-19T05:49:42.273Z,83.77
2018-04-19T05:50:42.261Z,83.58
2018-04-19T05:51:42.267Z,84.16
2018-04-19T05:52:42.257Z,83.48
2018-04-19T05:53:42.244Z,84.72
2018-04-19T05:54:42.247Z,84.25
2018-04-19T05:55:42.251Z,83.39
2018-04-19T05:56:42.253Z,84.34
2018-04-19T05:57:42.231Z,83.72
2018-04-19T05:58:42.248Z,83.43
2018-04-19T05:59:42.233Z,82.67
2018-04-19T06:00:42.233Z,82.29
2018-04-19T06:01:42.228Z,82.38
2018-04-19T06:02:42.224Z,82.38
2018-04-19T06:03:42.219Z,82.00
2018-04-19T06:04:42.213Z,82.76
2018-04-19T06:05:42.213Z,82.00
2018-04-19T06:06:42.209Z,80.28
2018-04-19T06:07:42.202Z,81.04
2018-04-19T06:08:42.231Z,81.37
2018-04-19T06:09:42.194Z,81.76
2018-04-19T06:10:42.200Z,81.18
2018-04-19T06:11:42.190Z,80.51
2018-04-19T06:12:42.189Z,79.36
2018-04-19T06:13:42.179Z,78.79
2018-04-19T06:14:42.189Z,79.17
2018-04-19T06:15:42.176Z,79.85
2018-04-19T06:16:42.173Z,80.22
2018-04-19T06:17:42.178Z,80.04
2018-04-19T06:18:42.172Z,79.75
2018-04-19T06:19:42.166Z,79.31
2018-04-19T06:20:42.166Z,80.27
2018-04-19T06:21:42.181Z,78.36
2018-04-19T06:22:42.160Z,78.07
2018-04-19T06:23:42.156Z,76.96
2018-04-19T06:24:42.153Z,76.25
2018-04-19T06:25:42.146Z,76.57
2018-04-19T06:26:42.146Z,76.29
2018-04-19T06:27:42.136Z,76.20
2018-04-19T06:28:42.140Z,77.34
2018-04-19T06:29:42.160Z,76.39
2018-04-19T06:30:42.142Z,76.00
2018-04-19T06:31:42.137Z,77.00
2018-04-19T06:32:42.137Z,77.06
2018-04-19T06:33:42.132Z,76.42
2018-04-19T06:34:42.122Z,75.85
2018-04-19T06:35:42.125Z,76.42
2018-04-19T06:36:42.132Z,75.37
2018-04-19T06:37:42.119Z,76.14
2018-04-19T06:38:42.116Z,74.99
2018-04-19T06:39:42.116Z,72.98
2018-04-19T06:40:42.139Z,74.80
2018-04-19T06:41:42.110Z,75.12
2018-04-19T06:42:42.104Z,74.22
2018-04-19T06:43:42.098Z,72.73
2018-04-19T06:44:42.106Z,71.48
2018-04-19T06:45:42.099Z,71.33
2018-04-19T06:46:42.094Z,71.91
2018-04-19T06:47:42.099Z,70.76
2018-04-19T06:48:42.085Z,69.09
2018-04-19T06:49:42.094Z,69.95
2018-04-19T06:50:42.096Z,70.91
2018-04-19T06:51:42.091Z,69.99
2018-04-19T06:52:42.089Z,69.70
2018-04-19T06:53:42.089Z,69.42
2018-04-19T06:54:42.079Z,69.70
2018-04-19T06:55:42.088Z,69.60
2018-04-19T06:56:42.093Z,67.25
2018-04-19T06:57:42.082Z,67.05
2018-04-19T06:58:42.073Z,66.38
2018-04-19T06:59:42.080Z,65.65
2018-04-19T07:00:42.094Z,68.08
2018-04-19T07:01:42.070Z,66.19
2018-04-19T07:02:42.070Z,63.96
2018-04-19T07:03:42.075Z,63.29
2018-04-19T07:04:42.071Z,63.89
2018-04-19T07:05:42.081Z,63.12
2018-04-19T07:06:42.064Z,61.11
2018-04-19T07:07:42.058Z,60.95
2018-04-19T07:08:42.063Z,59.89
2018-04-19T07:09:42.063Z,59.99
2018-04-19T07:10:42.062Z,59.06
2018-04-19T07:11:42.061Z,58.03
2018-04-19T07:12:42.047Z,57.55
2018-04-19T07:13:42.052Z,58.51
2018-04-19T07:14:42.059Z,58.45
2018-04-19T07:15:42.054Z,57.97
2018-04-19T07:16:42.056Z,57.14
2018-04-19T07:17:42.053Z,59.92
2018-04-19T07:18:42.054Z,58.70
2018-04-19T07:19:42.054Z,56.52
2018-04-19T07:20:42.052Z,54.50
2018-04-19T07:21:42.052Z,54.53
2018-04-19T07:22:42.046Z,52.95
2018-04-19T07:23:42.046Z,50.49
2018-04-19T07:24:42.060Z,50.42
2018-04-19T07:25:42.057Z,49.53
2018-04-19T07:26:42.053Z,49.91
2018-04-19T07:27:42.051Z,49.24
2018-04-19T07:28:42.054Z,48.52
2018-04-19T07:29:42.052Z,49.07
2018-04-19T07:30:42.060Z,49.38
2018-04-19T07:31:42.062Z,50.06
2018-04-19T07:32:42.067Z,48.95
2018-04-19T07:33:42.073Z,50.35
2018-04-19T07:34:42.077Z,49.84
2018-04-19T07:35:42.095Z,49.12
2018-04-19T07:36:42.091Z,47.02
2018-04-19T07:37:42.103Z,45.34
2018-04-19T07:38:42.105Z,46.20
2018-04-19T07:39:42.122Z,45.17
2018-04-19T07:40:42.124Z,46.90
2018-04-19T07:41:42.136Z,45.11
2018-04-19T07:42:42.169Z,44.17
2018-04-19T07:43:42.162Z,43.95
2018-04-19T07:44:42.170Z,44.24
2018-04-19T07:45:42.171Z,44.60
2018-04-19T07:46:42.179Z,45.11
2018-04-19T07:47:42.199Z,44.29
2018-04-19T07:48:42.217Z,42.47
2018-04-19T07:49:42.224Z,42.76
2018-04-19T07:50:42.228Z,42.90
2018-04-19T07:51:42.257Z,41.02
2018-04-19T07:52:42.259Z,41.29
2018-04-19T07:53:42.270Z,43.43
2018-04-19T07:54:42.297Z,44.42
2018-04-19T07:55:42.303Z,44.05
2018-04-19T07:56:42.320Z,43.41
2018-04-19T07:57:42.329Z,43.54
2018-04-19T07:58:42.356Z,44.29
2018-04-19T07:59:42.357Z,43.71
2018-04-19T08:00:42.378Z,43.54
2018-04-19T08:01:42.389Z,42.80
2018-04-19T08:02:42.405Z,42.17
2018-04-19T08:03:42.409Z,40.71
2018-04-19T08:04:42.429Z,41.52
2018-04-19T08:05:42.436Z,40.86
2018-04-19T08:06:42.457Z,41.35
2018-04-19T08:07:42.467Z,41.56
2018-04-19T08:08:42.486Z,40.29
2018-04-19T08:09:42.501Z,37.49
2018-04-19T08:10:42.512Z,38.50
2018-04-19T08:11:42.526Z,37.70
2018-04-19T08:12:42.561Z,37.24
2018-04-19T08:13:42.564Z,37.66
2018-04-19T08:14:42.577Z,37.04
2018-04-19T08:15:42.595Z,38.71
2018-04-19T08:16:42.620Z,40.21
2018-04-19T08:17:42.633Z,41.45
2018-04-19T08:18:42.640Z,41.06
2018-04-19T08:19:42.661Z,43.27
2018-04-19T08:20:42.683Z,43.48
2018-04-19T08:21:42.690Z,41.56
2018-04-19T08:22:42.701Z,40.85
2018-04-19T08:23:42.716Z,38.87
2018-04-19T08:24:42.746Z,37.74
2018-04-19T08:25:42.769Z,36.04
2018-04-19T08:26:42.769Z,35.59
2018-04-19T08:27:42.796Z,35.16
2018-04-19T08:28:42.811Z,36.07
2018-04-19T08:29:42.841Z,37.74
2018-04-19T08:30:42.854Z,41.33
2018-04-19T08:31:42.857Z,43.85
2018-04-19T08:32:42.874Z,43.77
2018-04-19T08:33:42.908Z,43.33
2018-04-19T08:34:42.904Z,42.05
2018-04-19T08:35:42.925Z,42.92
2018-04-19T08:36:42.938Z,41.31
2018-04-19T08:37:42.957Z,41.80
2018-04-19T08:38:42.968Z,39.37
2018-04-19T08:39:42.990Z,38.93
2018-04-19T08:40:43.003Z,42.40
2018-04-19T08:41:43.019Z,39.51
2018-04-19T08:42:43.042Z,41.88
2018-04-19T08:43:43.054Z,40.48
2018-04-19T08:44:43.084Z,41.41
2018-04-19T08:45:43.101Z,41.36
2018-04-19T08:46:43.117Z,41.41
2018-04-19T08:47:43.122Z,41.41
2018-04-19T08:48:43.160Z,42.67
2018-04-19T08:49:43.172Z,41.22
2018-04-19T08:50:43.285Z,39.26
2018-04-19T08:51:43.198Z,38.50
2018-04-19T08:52:43.209Z,37.76
2018-04-19T08:53:43.254Z,35.65
2018-04-19T08:54:43.258Z,34.21
2018-04-19T08:55:43.274Z,35.73
2018-04-19T08:56:43.283Z,39.18
2018-04-19T08:57:43.317Z,39.20
2018-04-19T08:58:43.340Z,39.29
2018-04-19T08:59:43.342Z,39.12
2018-04-19T09:00:43.364Z,39.45
2018-04-19T09:01:43.375Z,39.41
2018-04-19T09:02:43.413Z,36.10
2018-04-19T09:03:43.429Z,35.28
2018-04-19T09:04:43.449Z,35.08
2018-04-19T09:05:43.450Z,36.58
2018-04-19T09:06:43.480Z,35.59
2018-04-19T09:07:43.527Z,34.79
2018-04-19T09:08:43.514Z,34.47
2018-04-19T09:09:43.529Z,34.00
2018-04-19T09:10:43.554Z,32.55
2018-04-19T09:11:43.629Z,32.76
2018-04-19T09:15:15.436Z,36.90
2018-04-19T09:16:15.414Z,37.16
2018-04-19T09:18:08.368Z,36.00
2018-04-19T09:19:08.369Z,33.09
2018-04-19T09:21:01.433Z,37.85
2018-04-19T09:22:01.421Z,36.80
2018-04-19T09:23:54.476Z,36.49
2018-04-19T09:24:54.483Z,35.15
2018-04-19T09:26:47.554Z,35.80
2018-04-19T09:27:47.472Z,38.37
2018-04-19T09:29:40.560Z,40.19
2018-04-19T09:30:40.557Z,40.13
2018-04-19T09:32:33.548Z,36.47
2018-04-19T09:33:33.530Z,39.45
2018-04-19T09:35:26.664Z,38.31
2018-04-19T09:36:26.643Z,35.06
2018-04-19T09:38:19.700Z,35.29
2018-04-19T09:39:19.691Z,36.80
2018-04-19T09:41:12.738Z,34.52
2018-04-19T09:42:12.742Z,34.22
2018-04-19T09:44:05.778Z,33.12
2018-04-19T09:45:05.779Z,33.80
2018-04-19T09:46:58.775Z,32.79
2018-04-19T09:47:58.764Z,31.75
2018-04-19T09:49:51.782Z,31.01
2018-04-19T09:50:51.790Z,31.16
2018-04-19T09:52:44.794Z,33.41
2018-04-19T09:53:44.792Z,31.81
2018-04-19T09:55:37.811Z,31.68
2018-04-19T09:56:37.792Z,32.58
2018-04-19T09:58:30.955Z,32.37
2018-04-19T09:59:30.946Z,32.86
2018-04-19T10:01:23.993Z,29.99
2018-04-19T10:02:24.008Z,31.87
2018-04-19T10:04:17.018Z,33.72
2018-04-19T10:05:17.032Z,34.39
2018-04-19T10:07:10.058Z,34.05
2018-04-19T10:08:10.047Z,31.80
2018-04-19T10:10:03.025Z,33.54
2018-04-19T10:11:03.042Z,32.60
2018-04-19T10:12:56.044Z,32.89
2018-04-19T10:13:56.029Z,32.99
2018-04-19T10:15:49.013Z,33.97
2018-04-19T10:16:49.010Z,33.72
2018-04-19T10:18:42.058Z,32.76
2018-04-19T10:19:42.059Z,33.73
2018-04-19T10:21:35.038Z,33.54
2018-04-19T10:22:35.021Z,32.65
2018-04-19T10:24:28.129Z,35.26
2018-04-19T10:25:28.057Z,35.23
2018-04-19T10:27:21.106Z,35.31
2018-04-19T10:28:21.078Z,36.55
2018-04-19T10:29:21.104Z,35.80
2018-04-19T10:30:21.115Z,37.00
2018-04-19T10:31:21.132Z,34.47
2018-04-19T10:32:21.163Z,34.47
2018-04-19T10:33:21.183Z,35.23
2018-04-19T10:34:21.209Z,36.08
2018-04-19T10:35:21.229Z,35.31
2018-04-19T10:36:21.253Z,35.42
2018-04-19T10:37:21.265Z,35.61
2018-04-19T10:38:21.290Z,34.17
2018-04-19T10:39:21.306Z,35.23
2018-04-19T10:40:21.334Z,36.53
2018-04-19T10:41:21.340Z,33.93
2018-04-19T10:42:21.364Z,33.48
2018-04-19T10:43:21.386Z,31.48
2018-04-19T10:44:21.405Z,31.98
2018-04-19T10:45:21.437Z,31.16
2018-04-19T10:46:21.439Z,31.20
2018-04-19T10:47:21.464Z,31.60
2018-04-19T10:48:21.478Z,31.67
2018-04-19T10:49:21.507Z,32.06
2018-04-19T10:50:21.517Z,33.72
2018-04-19T10:51:21.543Z,33.01
2018-04-19T10:52:21.568Z,34.38
2018-04-19T10:53:21.646Z,31.85
2018-04-19T10:54:21.608Z,30.33
2018-04-19T10:55:21.625Z,30.98
2018-04-19T10:56:21.651Z,32.53
2018-04-19T10:57:21.657Z,35.33
2018-04-19T10:58:21.681Z,36.60
2018-04-19T10:59:21.713Z,35.98
2018-04-19T11:00:21.742Z,38.82
2018-04-19T11:01:21.792Z,36.93
2018-04-19T11:02:21.766Z,33.41
2018-04-19T11:03:21.780Z,34.24
2018-04-19T11:04:21.810Z,32.12
2018-04-19T11:05:21.835Z,31.00
2018-04-19T11:06:21.849Z,33.72
2018-04-19T11:07:21.880Z,33.02
2018-04-19T11:08:21.892Z,33.74
2018-04-19T11:09:21.914Z,33.62
2018-04-19T11:10:21.938Z,32.48
2018-04-19T11:11:21.962Z,32.35
2018-04-19T11:12:21.981Z,33.15
2018-04-19T11:13:21.998Z,31.99
2018-04-19T11:14:22.024Z,31.73
2018-04-19T11:15:22.043Z,33.85
2018-04-19T11:16:22.046Z,33.84
2018-04-19T11:17:22.076Z,33.54
2018-04-19T11:18:22.100Z,32.46
2018-04-19T11:19:22.120Z,33.53
2018-04-19T11:20:22.196Z,34.70
2018-04-19T11:21:22.151Z,34.41
2018-04-19T11:22:22.191Z,33.59
2018-04-19T11:23:22.315Z,34.79
2018-04-19T11:24:22.224Z,35.42
2018-04-19T11:25:22.236Z,37.27
2018-04-19T11:26:22.265Z,39.41
2018-04-19T11:27:22.277Z,39.41
2018-04-19T11:28:22.296Z,37.00
2018-04-19T11:29:22.322Z,35.16
2018-04-19T11:30:22.343Z,36.65
2018-04-19T11:31:22.369Z,37.35
2018-04-19T11:32:22.382Z,34.44
2018-04-19T11:33:22.396Z,34.73
2018-04-19T11:34:22.420Z,36.32
2018-04-19T11:35:22.439Z,35.86
2018-04-19T11:36:22.459Z,37.50
2018-04-19T11:37:22.481Z,36.18
2018-04-19T11:38:22.512Z,37.22
2018-04-19T11:39:22.511Z,37.39
2018-04-19T11:40:22.532Z,36.26
2018-04-19T11:41:22.556Z,39.82
2018-04-19T11:42:22.577Z,38.42
2018-04-19T11:43:22.607Z,37.83
2018-04-19T11:44:22.619Z,37.33
2018-04-19T11:45:22.651Z,36.53
2018-04-19T11:46:22.652Z,37.76
2018-04-19T11:47:22.687Z,36.53
2018-04-19T11:48:22.697Z,37.21
2018-04-19T11:49:22.726Z,37.66
2018-04-19T11:50:22.736Z,37.06
2018-04-19T11:51:22.749Z,35.36
2018-04-19T11:52:22.782Z,34.03
2018-04-19T11:53:22.795Z,34.16
2018-04-19T11:54:22.824Z,33.67
2018-04-19T11:55:22.831Z,33.69
2018-04-19T11:56:22.853Z,32.92
2018-04-19T11:57:22.868Z,33.82
2018-04-19T11:58:22.891Z,32.37
2018-04-19T11:59:22.908Z,33.90
2018-04-19T12:00:22.926Z,37.19
2018-04-19T12:01:22.947Z,34.47
2018-04-19T12:02:22.978Z,35.29
2018-04-19T12:03:22.989Z,35.23
2018-04-19T12:04:23.002Z,34.40
2018-04-19T12:05:23.020Z,33.93
2018-04-19T12:06:23.049Z,33.23
2018-04-19T12:07:23.055Z,33.43
2018-04-19T12:08:23.085Z,33.85
2018-04-19T12:09:23.107Z,33.64
2018-04-19T12:10:23.125Z,34.29
2018-04-19T12:11:23.133Z,34.81
2018-04-19T12:12:23.159Z,34.53
2018-04-19T12:13:23.176Z,33.40
2018-04-19T12:14:23.196Z,33.25
2018-04-19T12:15:23.211Z,33.79
2018-04-19T12:16:23.234Z,31.62
2018-04-19T12:17:23.251Z,32.78
2018-04-19T12:18:23.274Z,33.59
2018-04-19T12:19:23.301Z,32.31
2018-04-19T12:20:23.306Z,33.04
2018-04-19T12:21:23.324Z,35.58
2018-04-19T12:22:23.337Z,35.51
2018-04-19T12:23:23.367Z,37.11
2018-04-19T12:24:23.384Z,38.96
2018-04-19T12:25:23.401Z,39.28
2018-04-19T12:26:23.418Z,39.90
2018-04-19T12:27:23.443Z,39.70
2018-04-19T12:28:23.452Z,40.58
2018-04-19T12:29:23.480Z,38.25
2018-04-19T12:30:23.485Z,40.48
2018-04-19T12:31:23.496Z,41.47
2018-04-19T12:32:23.526Z,40.50
2018-04-19T12:33:23.533Z,40.99
2018-04-19T12:34:23.542Z,41.20
2018-04-19T12:35:23.557Z,41.27
2018-04-19T12:36:23.574Z,39.62
2018-04-19T12:37:23.585Z,39.69
2018-04-19T12:38:23.591Z,41.45
2018-04-19T12:39:23.603Z,42.03
2018-04-19T12:40:23.676Z,41.64
2018-04-19T12:41:23.675Z,44.62
2018-04-19T12:42:23.630Z,41.24
2018-04-19T12:43:23.651Z,41.24
2018-04-19T12:44:23.663Z,41.24
2018-04-19T12:45:23.646Z,40.25
2018-04-19T12:46:23.663Z,39.57
2018-04-19T12:47:23.700Z,37.82
2018-04-19T12:48:23.696Z,38.99
2018-04-19T12:49:23.681Z,38.21
2018-04-19T12:50:23.700Z,40.63
2018-04-19T12:51:23.697Z,41.82
2018-04-19T12:52:23.712Z,41.52
2018-04-19T12:53:23.713Z,38.04
2018-04-19T12:54:23.717Z,39.28
2018-04-19T12:55:23.796Z,41.60
2018-04-19T12:56:23.732Z,38.89
2018-04-19T12:57:23.750Z,40.34
2018-04-19T12:58:23.744Z,40.44
2018-04-19T12:59:23.748Z,39.86
2018-04-19T13:00:23.754Z,38.79
2018-04-19T13:01:23.766Z,38.31
2018-04-19T13:02:23.772Z,37.44
2018-04-19T13:03:23.783Z,38.99
2018-04-19T13:04:23.780Z,40.15
2018-04-19T13:05:23.786Z,43.24
2018-04-19T13:06:23.777Z,39.84
2018-04-19T13:07:23.800Z,40.52
2018-04-19T13:08:23.786Z,38.85
2018-04-19T13:09:23.805Z,37.40
2018-04-19T13:10:23.799Z,37.62
2018-04-19T13:11:23.805Z,40.20
2018-04-19T13:12:23.806Z,41.08
2018-04-19T13:13:23.813Z,40.40
2018-04-19T13:14:23.819Z,40.11
2018-04-19T13:15:23.822Z,37.98
2018-04-19T13:16:23.833Z,38.85
2018-04-19T13:17:23.850Z,39.34
2018-04-19T13:18:23.836Z,35.76
2018-04-19T13:19:23.829Z,35.47
2018-04-19T13:20:23.836Z,35.86
2018-04-19T13:21:23.839Z,41.94
2018-04-19T13:22:23.835Z,43.61
2018-04-19T13:23:23.857Z,42.07
2018-04-19T13:24:23.850Z,39.24
2018-04-19T13:25:23.859Z,39.26
2018-04-19T13:26:23.859Z,38.48
2018-04-19T13:27:23.860Z,39.94
2018-04-19T13:28:23.870Z,40.13
2018-04-19T13:29:23.861Z,40.32
2018-04-19T13:30:23.869Z,38.97
2018-04-19T13:31:23.880Z,39.36
2018-04-19T13:32:23.879Z,35.97
2018-04-19T13:33:23.890Z,38.29
2018-04-19T13:34:23.879Z,39.06
2018-04-19T13:35:23.900Z,40.42
2018-04-19T13:36:23.888Z,39.64
2018-04-19T13:37:23.900Z,40.23
2018-04-19T13:38:23.913Z,37.02
2018-04-19T13:39:23.906Z,37.50
2018-04-19T13:40:23.905Z,35.18
2018-04-19T13:41:23.897Z,34.50
2018-04-19T13:42:23.910Z,34.99
2018-04-19T13:43:23.920Z,34.62
2018-04-19T13:44:23.915Z,35.10
2018-04-19T13:45:23.941Z,37.13
2018-04-19T13:46:23.926Z,36.38
2018-04-19T13:47:23.924Z,36.28
2018-04-19T13:48:23.925Z,36.96
2018-04-19T13:49:23.956Z,37.54